Nearby METAR Reports

   
KBNA - Nashville, TN
Updated: Feb 23 2018 5:53 am
Partly Cloudy  
Partly Cloudy  
   Wind: Calm
Wind: Calm
Temperature: 57.2°F
Dew Point: 55.4°F
Humidity: 94%
Barometer: 30.29 inHg
Clouds: Partly Cloudy
Visibility: 10 mi
Cloud details: Few Clouds 1219.2 m,
Partly Cloudy 2133.6 m
KBNA 231153Z 00000KT 10SM FEW040 SCT070 14/13 A3029 RMK AO2 SLP254 70017 T01440133 10156 20133 50010 $
KGZS - Lawrenceburg, TN
Updated: Feb 23 2018 5:55 am
Mist, Overcast  
Mist, Overcast  
   Wind: Calm
Wind: Calm
Temperature: 57.2°F
Dew Point: 57.2°F
Humidity: 100%
Barometer: 30.29 inHg
Clouds: Overcast
Visibility: 1 mi
Cloud details: Overcast 975.4 m
KGZS 231155Z AUTO 00000KT 1 1/4SM BR OVC032 14/14 A3029 RMK A01
KOLV - Olive Branch, MS
Updated: Feb 22 2018 7:50 pm
NOT Current
Mist, Overcast  
Mist, Overcast  
   Wind: NE 8.1 mph
Wind: NE 8.1 mph
Temperature: 51.8°F
Dew Point: 51.8°F
Humidity: 100%
Barometer: 30.25 inHg
Clouds: Overcast
Visibility: 1 mi
Cloud details: Overcast 91.4 m
KOLV 230150Z 04007KT 1 1/2SM BR OVC003 11/11 A3025
KCHA - Chattanooga, TN
Updated: Feb 23 2018 5:53 am
Shallow Fog, Mist, Few Clouds  
Shallow Fog, Mist, Few Clouds  
   Wind: Calm
Wind: Calm
Temperature: 57.2°F
Dew Point: 55.4°F
Humidity: 94%
Barometer: 30.35 inHg
Clouds: Few Clouds
Visibility: 5 mi
Cloud details: Few Clouds 1524 m
KCHA 231153Z 00000KT 5SM MIFG BR FEW050 14/13 A3035 RMK AO2 SLP274 70007 T01390133 10183 20139 55000
KMEM - Memphis, TN
Updated: Feb 23 2018 5:54 am
Overcast  
Overcast  
   Wind: SSW 10.4 mph
Wind: SSW 10.4 mph
Temperature: 64.4°F
Dew Point: 62.6°F
Humidity: 94%
Barometer: 30.23 inHg
Clouds: Overcast
Visibility: 9 mi
Cloud details: Few Clouds 243.8 m,
Partly Cloudy 457.2 m,
Mostly Cloudy 2438.4 m,
Overcast 7620 m
KMEM 231154Z 21009KT 9SM FEW008 SCT015 BKN080 OVC250 18/17 A3023 RMK AO2 SLP237 60000 70014 T01780167 10178 20111 53007 $
KTYS - Knoxville, TN
Updated: Feb 23 2018 5:53 am
Mostly Cloudy  
Mostly Cloudy  
   Wind: Calm
Wind: Calm
Temperature: 57.2°F
Dew Point: 57.2°F
Humidity: 100%
Barometer: 30.35 inHg
Clouds: Mostly Cloudy
Visibility: 10 mi
Cloud details: Partly Cloudy 1310.6 m,
Partly Cloudy 1524 m,
Mostly Cloudy 7620 m
KTYS 231153Z 00000KT 10SM SCT043 SCT050 BKN250 14/14 A3035 RMK AO2 SLP272 T01440139 10161 20128 51002

Script developed by  Saratoga-weather.org Adapted for the template by  Weerstation Leuven